Terminal Aerodrome Forecast
Issued by NWS

Home | Current Version | Previous Version | Text Only | Print | Product List | Glossary On
Versions: 1 2 3 4 5 6 7 8 9 10 11 12 13 14
000
FTUS46 KMFR 270544
TAFLMT
TAF
KLMT 270544Z 2706/2806 VRB03KT P6SM -SHRA OVC050
      TEMPO 2711/2715 5SM -SHSN BKN025
     FM271900 32010KT P6SM -SHRA BKN050
     FM280300 32005KT 6SM -SHSNRA SCT025 OVC050=

USA.gov is the U.S. government's official web portal to all federal, state and local government web resources and services.